createdAt,value
2024-01-11T00:01:50.335Z,89.95
2024-01-11T00:04:18.467Z,90.01
2024-01-11T00:06:47.177Z,90.43
2024-01-11T00:09:15.169Z,90.09
2024-01-11T00:11:43.157Z,90.02
2024-01-11T00:14:11.185Z,90.21
2024-01-11T00:16:39.280Z,90.57
2024-01-11T00:19:07.438Z,89.90
2024-01-11T00:21:36.738Z,90.21
2024-01-11T00:24:06.004Z,90.14
2024-01-11T00:26:34.050Z,89.88
2024-01-11T00:29:02.115Z,89.90
2024-01-11T00:31:30.209Z,90.27
2024-01-11T00:33:58.182Z,90.29
2024-01-11T00:36:26.224Z,89.99
2024-01-11T00:38:54.162Z,89.66
2024-01-11T00:41:22.116Z,89.90
2024-01-11T00:43:50.091Z,90.47
2024-01-11T00:46:18.231Z,89.84
2024-01-11T00:48:46.363Z,89.88
2024-01-11T00:51:14.482Z,89.65
2024-01-11T00:53:42.487Z,89.85
2024-01-11T00:56:23.083Z,89.86
2024-01-11T00:58:51.193Z,90.23
2024-01-11T01:01:19.343Z,89.71
2024-01-11T01:03:47.332Z,89.58
2024-01-11T01:06:15.490Z,90.05
2024-01-11T01:08:43.574Z,89.84
2024-01-11T01:11:11.660Z,90.10
2024-01-11T01:13:39.658Z,89.55
2024-01-11T01:16:07.791Z,89.35
2024-01-11T01:18:35.793Z,89.04
2024-01-11T01:21:03.739Z,88.89
2024-01-11T01:23:31.800Z,88.73
2024-01-11T01:25:59.922Z,88.96
2024-01-11T01:28:27.831Z,88.59
2024-01-11T01:30:55.853Z,88.84
2024-01-11T01:33:23.985Z,88.56
2024-01-11T01:35:52.075Z,88.51
2024-01-11T01:38:20.096Z,88.74
2024-01-11T01:40:48.080Z,88.85
2024-01-11T01:43:16.081Z,88.89
2024-01-11T01:45:44.085Z,89.49
2024-01-11T01:48:12.331Z,89.40
2024-01-11T01:50:40.876Z,89.63
2024-01-11T01:53:09.839Z,89.37
2024-01-11T01:55:37.968Z,89.11
2024-01-11T01:58:06.774Z,88.88
2024-01-11T02:00:35.031Z,89.08
2024-01-11T02:03:03.146Z,89.25
2024-01-11T02:05:31.285Z,88.90
2024-01-11T02:08:02.187Z,88.73
2024-01-11T02:10:30.700Z,88.80
2024-01-11T02:12:58.814Z,88.56
2024-01-11T02:15:26.864Z,88.21
2024-01-11T02:17:55.045Z,88.72
2024-01-11T02:20:23.088Z,88.74
2024-01-11T02:22:58.643Z,88.26
2024-01-11T02:25:26.510Z,88.17
2024-01-11T02:27:54.511Z,88.25
2024-01-11T02:30:22.465Z,88.03
2024-01-11T02:32:51.922Z,88.30
2024-01-11T02:35:21.162Z,88.14
2024-01-11T02:37:50.020Z,87.75
2024-01-11T02:40:18.807Z,87.47
2024-01-11T02:42:46.802Z,87.39
2024-01-11T02:45:15.096Z,85.94
2024-01-11T02:47:43.506Z,87.25
2024-01-11T02:50:11.719Z,87.27
2024-01-11T02:52:40.093Z,87.04
2024-01-11T02:55:08.417Z,87.29
2024-01-11T02:57:36.321Z,87.21
2024-01-11T03:00:04.688Z,86.96
2024-01-11T03:02:32.818Z,87.25
2024-01-11T03:05:00.847Z,86.95
2024-01-11T03:07:28.925Z,86.72
2024-01-11T03:09:56.975Z,86.33
2024-01-11T03:12:24.942Z,86.83
2024-01-11T03:14:52.859Z,87.00
2024-01-11T03:17:20.917Z,86.88
2024-01-11T03:19:48.919Z,86.75
2024-01-11T03:22:16.890Z,86.65
2024-01-11T03:24:44.819Z,86.67
2024-01-11T03:27:12.779Z,86.22
2024-01-11T03:29:40.891Z,85.65
2024-01-11T03:32:09.290Z,86.22
2024-01-11T03:34:37.363Z,86.18
2024-01-11T03:37:05.469Z,86.24
2024-01-11T03:39:33.752Z,85.41
2024-01-11T03:42:01.724Z,85.42
2024-01-11T03:44:29.658Z,85.19
2024-01-11T03:46:57.691Z,85.36
2024-01-11T03:49:26.245Z,85.50
2024-01-11T03:51:54.278Z,85.50
2024-01-11T03:54:22.324Z,84.99
2024-01-11T03:56:50.676Z,84.88
2024-01-11T03:59:19.247Z,84.66
2024-01-11T04:01:48.364Z,84.54
2024-01-11T04:04:16.366Z,85.47
2024-01-11T04:06:44.512Z,85.19
2024-01-11T04:09:12.483Z,85.10
2024-01-11T04:11:40.782Z,84.14
2024-01-11T04:14:08.859Z,84.95
2024-01-11T04:16:41.670Z,84.39
2024-01-11T04:19:09.905Z,84.68
2024-01-11T04:21:41.186Z,85.05
2024-01-11T04:24:10.193Z,84.90
2024-01-11T04:26:38.365Z,84.41
2024-01-11T04:29:06.546Z,84.68
2024-01-11T04:31:34.607Z,84.08
2024-01-11T04:34:02.750Z,84.23
2024-01-11T04:36:30.766Z,84.68
2024-01-11T04:38:58.688Z,83.86
2024-01-11T04:41:26.713Z,84.70
2024-01-11T04:43:54.762Z,84.82
2024-01-11T04:46:24.393Z,84.66
2024-01-11T04:48:52.946Z,84.71
2024-01-11T04:51:21.221Z,85.07
2024-01-11T04:53:49.482Z,84.65
2024-01-11T04:56:18.888Z,85.04
2024-01-11T04:58:47.870Z,84.98
2024-01-11T05:01:17.389Z,84.76
2024-01-11T05:03:49.499Z,85.00
2024-01-11T05:06:22.056Z,84.72
2024-01-11T05:08:51.886Z,85.58
2024-01-11T05:11:21.129Z,84.97
2024-01-11T05:13:50.728Z,85.27
2024-01-11T05:16:34.252Z,85.48
2024-01-11T05:19:02.239Z,85.83
2024-01-11T05:21:30.267Z,86.17
2024-01-11T05:23:58.272Z,86.19
2024-01-11T05:26:26.258Z,86.60
2024-01-11T05:28:54.264Z,85.78
2024-01-11T05:31:22.288Z,85.93
2024-01-11T05:33:50.541Z,86.54
2024-01-11T05:36:21.290Z,86.91
2024-01-11T05:38:49.285Z,86.68
2024-01-11T05:41:17.538Z,86.62
2024-01-11T05:43:45.739Z,86.78
2024-01-11T05:46:13.877Z,86.57
2024-01-11T05:48:45.228Z,86.59
2024-01-11T05:51:15.955Z,87.17
2024-01-11T05:53:44.312Z,87.18
2024-01-11T05:56:13.148Z,86.64
2024-01-11T05:58:42.214Z,86.88
2024-01-11T06:01:13.142Z,86.57
2024-01-11T06:03:41.603Z,86.89
2024-01-11T06:06:12.352Z,87.20
2024-01-11T06:08:40.665Z,86.87
2024-01-11T06:11:10.082Z,87.30
2024-01-11T06:13:38.153Z,87.08
2024-01-11T06:16:06.346Z,87.27
2024-01-11T06:18:34.424Z,87.01
2024-01-11T06:21:04.858Z,86.58
2024-01-11T06:23:37.127Z,86.74
2024-01-11T06:26:05.772Z,86.81
2024-01-11T06:28:36.108Z,87.17
2024-01-11T06:31:04.949Z,87.71
2024-01-11T06:33:35.251Z,87.13
2024-01-11T06:36:03.260Z,87.40
2024-01-11T06:38:31.319Z,87.16
2024-01-11T06:40:59.776Z,87.31
2024-01-11T06:43:30.812Z,87.30
2024-01-11T06:46:11.659Z,88.14
2024-01-11T06:48:40.479Z,87.57
2024-01-11T06:51:08.518Z,86.94
2024-01-11T06:53:41.812Z,86.92
2024-01-11T06:56:20.816Z,86.61
2024-01-11T06:58:49.450Z,86.84
2024-01-11T07:01:17.415Z,87.55
2024-01-11T07:03:45.349Z,87.23
2024-01-11T07:06:13.600Z,87.88
2024-01-11T07:08:42.061Z,87.99
2024-01-11T07:11:10.122Z,87.56
2024-01-11T07:13:38.066Z,87.69
2024-01-11T07:16:06.336Z,87.38
2024-01-11T07:18:34.335Z,87.42
2024-01-11T07:21:02.427Z,87.69
2024-01-11T07:23:30.532Z,87.31
2024-01-11T07:25:58.517Z,87.17
2024-01-11T07:28:28.010Z,87.75
2024-01-11T07:30:56.085Z,87.41
2024-01-11T07:33:24.227Z,86.92
2024-01-11T07:35:53.136Z,87.42
2024-01-11T07:38:21.252Z,87.54
2024-01-11T07:40:49.278Z,87.15
2024-01-11T07:43:17.307Z,87.37
2024-01-11T07:45:45.321Z,87.34
2024-01-11T07:48:13.649Z,87.19
2024-01-11T07:50:41.841Z,87.49
2024-01-11T07:53:10.026Z,87.45
2024-01-11T07:55:38.033Z,87.95
2024-01-11T07:58:06.072Z,87.52
2024-01-11T08:00:34.022Z,87.77
2024-01-11T08:03:02.781Z,87.77
2024-01-11T08:05:30.916Z,87.51
2024-01-11T08:07:59.077Z,87.29
2024-01-11T08:10:27.070Z,87.53
2024-01-11T08:12:55.116Z,87.77
2024-01-11T08:15:23.105Z,87.50
2024-01-11T08:17:51.261Z,87.71
2024-01-11T08:20:19.374Z,88.30
2024-01-11T08:22:49.040Z,88.30
2024-01-11T08:25:17.211Z,87.94
2024-01-11T08:27:45.360Z,87.67
2024-01-11T08:30:15.096Z,87.50
2024-01-11T08:32:44.459Z,87.45
2024-01-11T08:35:12.983Z,87.29
2024-01-11T08:37:41.741Z,87.01
2024-01-11T08:40:11.917Z,87.13
2024-01-11T08:42:40.421Z,85.41
2024-01-11T08:45:09.617Z,85.68
2024-01-11T08:47:37.978Z,86.62
2024-01-11T08:50:08.500Z,86.79
2024-01-11T08:52:36.610Z,86.23
2024-01-11T08:55:04.824Z,85.96
2024-01-11T08:57:32.891Z,85.94
2024-01-11T09:00:00.974Z,86.24
2024-01-11T09:02:29.120Z,86.49
2024-01-11T09:04:57.192Z,86.63
2024-01-11T09:07:25.197Z,86.51
2024-01-11T09:09:57.066Z,86.03
2024-01-11T09:12:25.743Z,86.00
2024-01-11T09:14:53.778Z,85.86
2024-01-11T09:17:21.892Z,85.98
2024-01-11T09:19:50.104Z,85.07
2024-01-11T09:22:18.530Z,85.29
2024-01-11T09:24:46.493Z,85.73
2024-01-11T09:27:14.477Z,85.52
2024-01-11T09:29:49.573Z,85.55
2024-01-11T09:32:18.134Z,85.14
2024-01-11T09:34:48.234Z,85.42
2024-01-11T09:37:16.270Z,83.80
2024-01-11T09:39:45.004Z,84.64
2024-01-11T09:42:13.298Z,84.86
2024-01-11T09:44:42.214Z,84.79
2024-01-11T09:47:15.258Z,84.89
2024-01-11T09:49:46.915Z,84.95
2024-01-11T09:52:17.018Z,84.10
2024-01-11T09:54:46.281Z,84.80
2024-01-11T09:57:23.562Z,85.08
2024-01-11T09:59:56.557Z,84.77
2024-01-11T10:02:31.421Z,85.38
2024-01-11T10:05:02.381Z,85.00
2024-01-11T10:07:33.091Z,85.09
2024-01-11T10:10:01.228Z,85.20
2024-01-11T10:12:32.996Z,85.18
2024-01-11T10:15:09.021Z,84.75
2024-01-11T10:17:37.082Z,84.16
2024-01-11T10:20:08.301Z,84.95
2024-01-11T10:22:39.047Z,84.42
2024-01-11T10:25:14.286Z,84.88
2024-01-11T10:27:46.105Z,85.13
2024-01-11T10:30:19.180Z,84.71
2024-01-11T10:32:48.246Z,84.65
2024-01-11T10:35:17.072Z,84.66
2024-01-11T10:37:46.629Z,84.25
2024-01-11T10:40:17.850Z,84.72
2024-01-11T10:42:52.352Z,85.29
2024-01-11T10:45:22.202Z,85.03
2024-01-11T10:48:01.645Z,85.20
2024-01-11T10:50:35.887Z,83.95
2024-01-11T10:53:14.277Z,84.60
2024-01-11T10:55:44.616Z,84.21
2024-01-11T10:58:13.889Z,84.13
2024-01-11T11:00:41.888Z,84.57
2024-01-11T11:03:11.659Z,84.69
2024-01-11T11:05:40.745Z,84.65
2024-01-11T11:08:10.480Z,84.27
2024-01-11T11:10:40.316Z,84.33
2024-01-11T11:13:08.920Z,84.38
2024-01-11T11:15:39.447Z,84.65
2024-01-11T11:18:09.932Z,83.99
2024-01-11T11:20:38.098Z,83.37
2024-01-11T11:23:10.208Z,83.74
2024-01-11T11:25:38.535Z,83.73
2024-01-11T11:28:07.029Z,83.89
2024-01-11T11:30:46.184Z,83.59
2024-01-11T11:33:26.628Z,83.29
2024-01-11T11:35:56.913Z,83.74
2024-01-11T11:38:31.326Z,84.22
2024-01-11T11:41:03.440Z,84.31
2024-01-11T11:43:32.551Z,84.24
2024-01-11T11:46:03.765Z,83.84
2024-01-11T11:48:32.475Z,83.56
2024-01-11T11:51:24.823Z,84.05
2024-01-11T11:53:55.552Z,84.28
2024-01-11T11:56:25.016Z,84.32
2024-01-11T11:58:55.436Z,84.06
2024-01-11T12:01:23.443Z,83.81
2024-01-11T12:03:51.792Z,83.94
2024-01-11T12:06:21.687Z,83.85
2024-01-11T12:08:51.738Z,83.42
2024-01-11T12:11:23.080Z,84.29
2024-01-11T12:13:52.461Z,84.16
2024-01-11T12:16:20.680Z,84.28
2024-01-11T12:18:48.820Z,84.35
2024-01-11T12:21:16.957Z,84.52
2024-01-11T12:23:46.469Z,84.31
2024-01-11T12:26:16.698Z,83.95
2024-01-11T12:28:46.650Z,84.33
2024-01-11T12:31:14.952Z,84.10
2024-01-11T12:33:43.928Z,84.08
2024-01-11T12:36:13.392Z,83.55
2024-01-11T12:38:52.638Z,82.48
2024-01-11T12:41:23.631Z,83.21
2024-01-11T12:43:51.946Z,83.09
2024-01-11T12:46:20.189Z,82.94
2024-01-11T12:48:50.190Z,83.17
2024-01-11T12:51:22.889Z,82.09
2024-01-11T12:53:51.664Z,81.40
2024-01-11T12:56:21.012Z,81.74
2024-01-11T12:58:50.094Z,82.48
2024-01-11T13:01:18.251Z,82.26
2024-01-11T13:03:48.541Z,82.05
2024-01-11T13:06:18.473Z,81.68
2024-01-11T13:08:46.947Z,82.17
2024-01-11T13:11:16.462Z,82.24
2024-01-11T13:13:44.612Z,81.33
2024-01-11T13:16:16.630Z,81.41
2024-01-11T13:18:44.721Z,81.75
2024-01-11T13:21:14.944Z,81.78
2024-01-11T13:23:43.935Z,81.93
2024-01-11T13:26:12.203Z,81.25
2024-01-11T13:28:40.308Z,81.27
2024-01-11T13:31:08.506Z,81.78
2024-01-11T13:33:36.618Z,81.53
2024-01-11T13:36:04.928Z,81.50
2024-01-11T13:38:33.081Z,81.52
2024-01-11T13:41:01.159Z,81.48
2024-01-11T13:43:29.209Z,81.27
2024-01-11T13:45:57.552Z,81.20
2024-01-11T13:48:25.844Z,81.34
2024-01-11T13:50:53.975Z,81.10
2024-01-11T13:53:22.191Z,81.46
2024-01-11T13:55:50.883Z,81.54
2024-01-11T13:58:20.346Z,81.64
2024-01-11T14:00:48.476Z,81.68
2024-01-11T14:03:16.602Z,81.43
2024-01-11T14:05:44.722Z,81.40
2024-01-11T14:08:12.651Z,81.59
2024-01-11T14:10:40.571Z,81.65
2024-01-11T14:13:08.516Z,81.92
2024-01-11T14:15:36.965Z,81.70
2024-01-11T14:18:06.187Z,81.60
2024-01-11T14:20:36.201Z,81.73
2024-01-11T14:23:04.628Z,81.84
2024-01-11T14:25:32.923Z,81.62
2024-01-11T14:28:01.404Z,81.97
2024-01-11T14:30:29.458Z,82.01
2024-01-11T14:32:57.659Z,81.94
2024-01-11T14:35:25.930Z,81.76
2024-01-11T14:37:55.247Z,82.09
2024-01-11T14:40:28.800Z,82.17
2024-01-11T14:42:57.046Z,81.85
2024-01-11T14:45:25.347Z,82.37
2024-01-11T14:47:53.540Z,82.37
2024-01-11T14:50:22.181Z,82.59
2024-01-11T14:52:50.119Z,82.58
2024-01-11T14:55:18.910Z,82.61
2024-01-11T14:57:46.818Z,82.52
2024-01-11T15:00:15.748Z,82.37
2024-01-11T15:02:43.794Z,81.99
2024-01-11T15:05:11.847Z,82.30
2024-01-11T15:07:39.760Z,82.14
2024-01-11T15:10:08.172Z,82.38
2024-01-11T15:12:36.302Z,82.27
2024-01-11T15:15:08.496Z,82.49
2024-01-11T15:17:36.648Z,82.78
2024-01-11T15:20:06.852Z,82.70
2024-01-11T15:22:35.069Z,82.60
2024-01-11T15:25:02.980Z,83.00
2024-01-11T15:27:31.112Z,83.15
2024-01-11T15:29:59.141Z,82.92
2024-01-11T15:32:27.682Z,83.02
2024-01-11T15:34:56.140Z,83.21
2024-01-11T15:37:28.127Z,83.27
2024-01-11T15:39:56.681Z,82.96
2024-01-11T15:42:26.504Z,83.14
2024-01-11T15:44:54.795Z,83.28
2024-01-11T15:47:22.974Z,83.40
2024-01-11T15:49:51.038Z,83.05
2024-01-11T15:52:19.003Z,83.16
2024-01-11T15:54:46.957Z,83.54
2024-01-11T15:57:16.506Z,83.36
2024-01-11T15:59:45.869Z,83.12
2024-01-11T16:02:16.797Z,83.31
2024-01-11T16:04:47.157Z,83.37
2024-01-11T16:07:15.383Z,83.21
2024-01-11T16:09:43.362Z,83.17
2024-01-11T16:12:11.463Z,83.41
2024-01-11T16:14:39.489Z,83.31
2024-01-11T16:17:07.596Z,83.30
2024-01-11T16:19:36.290Z,83.37
2024-01-11T16:22:05.762Z,83.52
2024-01-11T16:24:33.650Z,83.45
2024-01-11T16:27:07.064Z,83.89
2024-01-11T16:29:35.178Z,83.70
2024-01-11T16:32:03.119Z,83.86
2024-01-11T16:34:31.144Z,83.74
2024-01-11T16:37:00.370Z,83.83
2024-01-11T16:39:28.318Z,83.69
2024-01-11T16:41:56.727Z,83.58
2024-01-11T16:44:24.927Z,83.39
2024-01-11T16:46:54.705Z,83.58
2024-01-11T16:49:24.782Z,83.56
2024-01-11T16:51:55.682Z,83.45
2024-01-11T16:54:24.341Z,83.80
2024-01-11T16:56:53.903Z,83.41
2024-01-11T16:59:24.173Z,83.48
2024-01-11T17:01:52.211Z,83.56
2024-01-11T17:04:20.388Z,83.79
2024-01-11T17:06:48.594Z,83.37
2024-01-11T17:09:16.606Z,83.35
2024-01-11T17:11:44.929Z,83.91
2024-01-11T17:14:13.001Z,84.02
2024-01-11T17:16:41.031Z,83.61
2024-01-11T17:19:09.054Z,83.60
2024-01-11T17:21:37.003Z,83.72
2024-01-11T17:24:05.483Z,83.59
2024-01-11T17:26:34.066Z,84.04
2024-01-11T17:29:02.359Z,83.62
2024-01-11T17:31:30.351Z,83.61
2024-01-11T17:33:59.029Z,83.32
2024-01-11T17:36:29.358Z,83.67
2024-01-11T17:38:57.564Z,83.80
2024-01-11T17:41:25.587Z,83.82
2024-01-11T17:43:55.253Z,83.96
2024-01-11T17:46:28.978Z,83.70
2024-01-11T17:48:57.706Z,83.71
2024-01-11T17:51:25.822Z,84.09
2024-01-11T17:53:57.316Z,83.68
2024-01-11T17:56:25.631Z,84.54
2024-01-11T17:58:53.623Z,83.83
2024-01-11T18:01:27.895Z,83.88
2024-01-11T18:03:55.799Z,84.06
2024-01-11T18:06:23.885Z,84.08
2024-01-11T18:08:52.119Z,84.36
2024-01-11T18:11:22.723Z,84.26
2024-01-11T18:13:50.636Z,84.32
2024-01-11T18:16:18.917Z,84.52
2024-01-11T18:18:50.656Z,84.59
2024-01-11T18:21:18.930Z,84.92
2024-01-11T18:23:47.100Z,84.95
2024-01-11T18:26:15.777Z,84.85
2024-01-11T18:28:44.036Z,85.07
2024-01-11T18:31:17.248Z,85.29
2024-01-11T18:33:49.347Z,85.28
2024-01-11T18:36:21.795Z,85.05
2024-01-11T18:38:50.200Z,85.32
2024-01-11T18:41:20.221Z,85.66
2024-01-11T18:43:48.116Z,85.57
2024-01-11T18:46:16.813Z,85.80
2024-01-11T18:48:45.070Z,85.86
2024-01-11T18:51:13.222Z,85.58
2024-01-11T18:53:42.736Z,85.45
2024-01-11T18:56:20.240Z,85.50
2024-01-11T18:58:48.285Z,85.46
2024-01-11T19:01:16.276Z,85.41
2024-01-11T19:03:44.418Z,85.46
2024-01-11T19:06:12.451Z,85.39
2024-01-11T19:08:40.564Z,85.74
2024-01-11T19:11:09.121Z,85.17
2024-01-11T19:13:37.197Z,85.55
2024-01-11T19:16:05.695Z,85.68
2024-01-11T19:18:33.946Z,85.52
2024-01-11T19:21:05.129Z,85.60
2024-01-11T19:26:01.478Z,85.69
2024-01-11T19:28:29.637Z,85.97
2024-01-11T19:30:58.336Z,86.54
2024-01-11T19:33:26.587Z,86.08
2024-01-11T19:35:55.655Z,86.84
2024-01-11T19:38:23.733Z,86.36
2024-01-11T19:40:52.340Z,86.25
2024-01-11T19:43:20.378Z,86.52
2024-01-11T19:45:48.415Z,86.39
2024-01-11T19:48:16.834Z,86.50
2024-01-11T19:50:45.178Z,86.48
2024-01-11T19:53:13.342Z,86.52
2024-01-11T19:55:43.023Z,86.23
2024-01-11T19:58:11.129Z,85.90
2024-01-11T20:00:43.428Z,86.01
2024-01-11T20:03:11.511Z,85.96
2024-01-11T20:05:39.507Z,85.98
2024-01-11T20:08:07.750Z,85.50
2024-01-11T20:10:36.277Z,85.52
2024-01-11T20:13:04.335Z,85.61
2024-01-11T20:15:33.291Z,85.71
2024-01-11T20:18:01.436Z,85.24
2024-01-11T20:20:30.709Z,85.36
2024-01-11T20:22:58.709Z,85.67
2024-01-11T20:25:27.004Z,84.95
2024-01-11T20:27:55.030Z,85.07
2024-01-11T20:30:23.124Z,85.62
2024-01-11T20:32:51.370Z,85.33
2024-01-11T20:35:19.487Z,85.36
2024-01-11T20:37:47.710Z,84.96
2024-01-11T20:40:15.694Z,85.08
2024-01-11T20:42:43.676Z,85.25
2024-01-11T20:45:11.939Z,85.22
2024-01-11T20:47:39.920Z,85.47
2024-01-11T20:50:08.691Z,84.86
2024-01-11T20:52:39.455Z,85.15
2024-01-11T20:55:07.465Z,84.74
2024-01-11T20:57:35.608Z,84.66
2024-01-11T21:00:05.780Z,83.88
2024-01-11T21:02:34.786Z,84.10
2024-01-11T21:05:02.792Z,83.84
2024-01-11T21:07:30.812Z,84.37
2024-01-11T21:09:59.978Z,84.87
2024-01-11T21:12:28.192Z,84.84
2024-01-11T21:14:56.297Z,84.66
2024-01-11T21:17:24.308Z,84.71
2024-01-11T21:19:53.470Z,84.46
2024-01-11T21:22:21.459Z,84.68
2024-01-11T21:24:50.140Z,84.82
2024-01-11T21:27:18.131Z,85.36
2024-01-11T21:29:46.164Z,85.21
2024-01-11T21:32:16.398Z,84.67
2024-01-11T21:34:44.743Z,85.05
2024-01-11T21:37:12.732Z,84.38
2024-01-11T21:39:40.723Z,84.43
2024-01-11T21:42:08.666Z,84.93
2024-01-11T21:44:36.708Z,84.75
2024-01-11T21:47:04.792Z,84.52
2024-01-11T21:49:32.722Z,84.68
2024-01-11T21:52:00.748Z,84.37
2024-01-11T21:54:28.867Z,84.39
2024-01-11T21:56:59.480Z,84.47
2024-01-11T21:59:27.560Z,84.79
2024-01-11T22:01:55.581Z,84.90
2024-01-11T22:04:23.495Z,84.35
2024-01-11T22:06:51.595Z,85.32
2024-01-11T22:09:20.448Z,85.61
2024-01-11T22:11:48.488Z,85.37
2024-01-11T22:14:16.470Z,85.20
2024-01-11T22:16:44.890Z,84.97
2024-01-11T22:19:13.076Z,85.21
2024-01-11T22:21:41.986Z,84.75
2024-01-11T22:24:10.694Z,85.04
2024-01-11T22:26:38.702Z,84.52
2024-01-11T22:29:06.621Z,84.49
2024-01-11T22:31:35.352Z,84.61
2024-01-11T22:34:04.821Z,84.49
2024-01-11T22:36:32.821Z,84.74
2024-01-11T22:39:01.018Z,84.68
2024-01-11T22:41:31.177Z,84.82
2024-01-11T22:43:59.543Z,85.13
2024-01-11T22:46:27.773Z,85.33
2024-01-11T22:48:55.798Z,85.41
2024-01-11T22:51:24.538Z,85.20
2024-01-11T22:53:53.329Z,85.12
2024-01-11T22:56:21.309Z,85.46
2024-01-11T22:58:49.359Z,85.21
2024-01-11T23:01:17.414Z,85.08
2024-01-11T23:03:45.465Z,85.17
2024-01-11T23:06:13.733Z,85.38
2024-01-11T23:08:41.830Z,85.16
2024-01-11T23:11:10.315Z,85.44
2024-01-11T23:13:38.321Z,85.67
2024-01-11T23:16:06.625Z,85.78
2024-01-11T23:18:35.173Z,85.46
2024-01-11T23:21:03.420Z,85.59
2024-01-11T23:23:31.535Z,85.64
2024-01-11T23:25:59.574Z,85.49
2024-01-11T23:28:27.467Z,85.30
2024-01-11T23:30:55.850Z,85.29
2024-01-11T23:33:24.054Z,85.59
2024-01-11T23:35:52.200Z,85.47
2024-01-11T23:38:20.307Z,85.25
2024-01-11T23:40:48.397Z,85.23
2024-01-11T23:43:16.388Z,85.27
2024-01-11T23:45:44.336Z,85.07
2024-01-11T23:48:12.680Z,84.51
2024-01-11T23:50:40.765Z,84.67
2024-01-11T23:53:08.837Z,83.67
2024-01-11T23:55:36.855Z,84.14
2024-01-11T23:58:05.142Z,84.28
